Avon, Maine
Current Conditions -  °F | °C
As of 12:35 AM on Saturday 27 Dec 2014 (Local Time) from KWVL Reporting Station
Overcast Overcast  
Wind Chill:   Ceiling: 4300
Heat Index:   Visibility: 10mi
Dew Point: -3°   Wind: 6mph
Humidity: 65%   Direction: 230°SW
Pressure: 30.02"   Gusts: NA
Location:  44.8921°N, 70.379°W
Report Text: KWVL 270535Z 23005KT 10SM OVC043 03/M03 A3002 RMK AO1
Loading
Personal Weather Stations






























Interactive Weather Map New forecast layout! Learn more

10-Day Weather Forecast

Advertisements
Track Severe Weather on mobile